Time;durP1;ratioP1;P1;durP2;ratioP2;P2;SDS_P1;SDS_P2;PMS_P1;PMS_P2;Temp;Humidity;BMP_temperature;BMP_pressure;BME280_temperature;BME280_humidity;BME280_pressure;Samples;Min_cycle;Max_cycle;Signal;HPM_P1;HPM_P2
2023/04/06 00:01:32;;;;;;;5.70;3.00;;;1.90;99.90;;;;;;5033402;28;20374;-83
2023/04/06 00:03:58;;;;;;;5.67;3.97;;;1.90;99.90;;;;;;5032126;28;20225;-83
2023/04/06 00:06:23;;;;;;;6.57;3.10;;;1.90;99.90;;;;;;5033409;28;20182;-83
2023/04/06 00:08:49;;;;;;;4.23;2.73;;;1.90;99.90;;;;;;5032094;28;20214;-83
2023/04/06 00:11:16;;;;;;;4.30;2.83;;;1.90;99.90;;;;;;5033248;28;20267;-82
2023/04/06 00:13:42;;;;;;;4.80;3.40;;;1.80;99.90;;;;;;5033047;28;20225;-83
2023/04/06 00:16:08;;;;;;;4.90;2.90;;;1.80;99.90;;;;;;5033421;28;20605;-83
2023/04/06 00:18:33;;;;;;;5.57;3.00;;;1.80;99.90;;;;;;5033288;28;20209;-83
2023/04/06 00:20:59;;;;;;;4.50;3.00;;;1.80;99.90;;;;;;5014774;28;20613;-83
2023/04/06 00:23:25;;;;;;;3.57;2.73;;;1.70;99.90;;;;;;5033553;28;20170;-83
2023/04/06 00:25:50;;;;;;;6.63;3.07;;;1.80;99.90;;;;;;5033195;28;20190;-83
2023/04/06 00:28:16;;;;;;;3.97;2.90;;;1.70;99.90;;;;;;5033065;28;20211;-83
2023/04/06 00:30:42;;;;;;;4.87;3.00;;;1.70;99.90;;;;;;5015056;28;20227;-84
2023/04/06 00:33:08;;;;;;;4.73;2.90;;;1.50;99.90;;;;;;5031570;28;20261;-84
2023/04/06 00:35:34;;;;;;;5.23;3.17;;;1.50;99.90;;;;;;5033111;28;20250;-83
2023/04/06 00:38:00;;;;;;;4.80;3.10;;;1.50;99.90;;;;;;5033182;28;20174;-83
2023/04/06 00:40:28;;;;;;;4.70;2.97;;;1.50;99.90;;;;;;5032832;28;20167;-83
2023/04/06 00:42:54;;;;;;;4.00;2.90;;;1.50;99.90;;;;;;5033019;28;20529;-84
2023/04/06 00:45:20;;;;;;;5.63;3.00;;;1.50;99.90;;;;;;5032446;28;20162;-82
2023/04/06 00:47:46;;;;;;;3.60;2.60;;;1.40;99.90;;;;;;5033028;28;20202;-83
2023/04/06 00:50:12;;;;;;;4.20;2.70;;;1.40;99.90;;;;;;5035278;28;20261;-83
2023/04/06 00:52:37;;;;;;;6.20;2.80;;;1.40;99.90;;;;;;5036542;28;20514;-83
2023/04/06 00:55:04;;;;;;;4.77;3.00;;;1.40;99.90;;;;;;5035127;28;20209;-83
2023/04/06 00:57:31;;;;;;;4.57;2.93;;;1.40;99.90;;;;;;5036550;28;20205;-84
2023/04/06 00:59:57;;;;;;;5.97;3.20;;;1.40;99.90;;;;;;5036190;28;20612;-83
2023/04/06 01:02:24;;;;;;;5.40;2.90;;;1.40;99.90;;;;;;5018574;28;20178;-83
2023/04/06 01:04:50;;;;;;;5.53;3.17;;;1.40;99.90;;;;;;5036812;28;20250;-84
2023/04/06 01:07:15;;;;;;;6.30;3.33;;;1.40;99.90;;;;;;5036337;28;20277;-83
2023/04/06 01:09:41;;;;;;;5.67;2.80;;;1.30;99.90;;;;;;5036333;28;20179;-84
2023/04/06 01:12:07;;;;;;;9.43;3.10;;;1.40;99.90;;;;;;5036155;28;20181;-85
2023/04/06 01:14:33;;;;;;;7.17;2.83;;;1.30;99.90;;;;;;5035942;28;20167;-84
2023/04/06 01:17:00;;;;;;;5.33;2.80;;;1.30;99.90;;;;;;5036294;28;20240;-83
2023/04/06 01:19:26;;;;;;;4.63;2.83;;;1.30;99.90;;;;;;5018458;28;20182;-85
2023/04/06 01:21:53;;;;;;;5.53;3.17;;;1.30;99.90;;;;;;5022074;28;20183;-84
2023/04/06 01:24:19;;;;;;;6.07;3.03;;;1.30;99.90;;;;;;5003774;28;20670;-85
2023/04/06 01:26:45;;;;;;;5.20;2.87;;;1.20;99.90;;;;;;5018944;28;20186;-85
2023/04/06 01:29:11;;;;;;;4.97;2.90;;;1.20;99.90;;;;;;5036526;28;20213;-85
2023/04/06 01:31:39;;;;;;;7.73;2.90;;;1.10;99.90;;;;;;5036013;28;20205;-86
2023/04/06 01:34:06;;;;;;;4.83;3.30;;;1.10;99.90;;;;;;5035579;28;20266;-85
2023/04/06 01:36:31;;;;;;;4.70;2.73;;;1.10;99.90;;;;;;5036184;28;20177;-86
2023/04/06 01:38:57;;;;;;;4.17;2.70;;;1.10;99.90;;;;;;5036254;28;20197;-85
2023/04/06 01:41:23;;;;;;;5.30;3.30;;;1.10;99.90;;;;;;5036426;28;20330;-85
2023/04/06 01:43:49;;;;;;;4.43;3.27;;;1.10;99.90;;;;;;5036629;28;20220;-85
2023/04/06 01:46:15;;;;;;;3.80;2.80;;;1.10;99.90;;;;;;5036377;28;20155;-85
2023/04/06 01:48:41;;;;;;;8.07;2.97;;;1.10;99.90;;;;;;5036266;28;20206;-86
2023/04/06 01:51:07;;;;;;;4.80;3.20;;;1.10;99.90;;;;;;5035639;28;20746;-87
2023/04/06 01:53:35;;;;;;;4.53;3.17;;;1.00;99.90;;;;;;5036315;28;20183;-85
2023/04/06 01:56:00;;;;;;;5.37;3.20;;;1.10;99.90;;;;;;5036526;28;20498;-86
2023/04/06 01:58:26;;;;;;;4.30;3.13;;;1.00;99.90;;;;;;5036359;28;20171;-85
2023/04/06 02:00:52;;;;;;;6.90;3.30;;;0.90;99.90;;;;;;5035076;28;20663;-86
2023/04/06 02:03:25;;;;;;;6.63;3.03;;;0.90;99.90;;;;;;5036129;28;20232;-86
2023/04/06 02:05:51;;;;;;;5.63;2.93;;;0.90;99.90;;;;;;5035906;28;20185;-86
2023/04/06 02:08:17;;;;;;;4.30;2.63;;;0.80;99.90;;;;;;5036090;28;20926;-87
2023/04/06 02:10:42;;;;;;;5.60;2.87;;;0.70;99.90;;;;;;5018368;28;20378;-87
2023/04/06 02:13:08;;;;;;;5.00;3.07;;;0.80;99.90;;;;;;5036145;28;20206;-87
2023/04/06 02:15:33;;;;;;;4.33;2.93;;;0.80;99.90;;;;;;5036218;28;20174;-88
2023/04/06 02:18:00;;;;;;;6.30;3.07;;;0.70;99.90;;;;;;5036079;28;20228;-88
2023/04/06 02:20:26;;;;;;;5.47;3.07;;;0.70;99.90;;;;;;5034349;28;20178;-87
2023/04/06 02:22:52;;;;;;;4.83;2.70;;;0.70;99.90;;;;;;5016185;28;20176;-88
2023/04/06 02:25:18;;;;;;;3.93;2.90;;;0.70;99.90;;;;;;5016344;28;20174;-87
2023/04/06 02:27:44;;;;;;;5.83;3.40;;;0.70;99.90;;;;;;5015177;28;20258;-87
2023/04/06 02:30:10;;;;;;;5.43;3.50;;;0.50;99.90;;;;;;5016175;28;20175;-87
2023/04/06 02:32:36;;;;;;;6.20;3.13;;;0.50;99.90;;;;;;4998661;28;20186;-88
2023/04/06 02:35:01;;;;;;;7.43;3.60;;;0.50;99.90;;;;;;5016272;28;20167;-88
2023/04/06 02:37:27;;;;;;;5.97;3.23;;;0.60;99.90;;;;;;5015813;28;20178;-87
2023/04/06 02:39:54;;;;;;;6.70;3.43;;;0.60;99.90;;;;;;5016493;28;20201;-88
2023/04/06 02:42:23;;;;;;;4.63;2.87;;;0.50;99.90;;;;;;5014733;28;20495;-88
2023/04/06 02:44:48;;;;;;;5.37;3.47;;;0.50;99.90;;;;;;5016061;28;20246;-89
2023/04/06 02:47:14;;;;;;;5.00;3.30;;;0.50;99.90;;;;;;5015576;28;20305;-89
2023/04/06 02:49:40;;;;;;;8.93;3.47;;;0.50;99.90;;;;;;5015034;28;20193;-87
2023/04/06 02:52:13;;;;;;;6.07;3.27;;;0.40;99.90;;;;;;5045180;28;20252;-88
2023/04/06 02:54:39;;;;;;;6.13;3.00;;;0.30;99.90;;;;;;5055671;28;20178;-87
2023/04/06 02:57:05;;;;;;;7.17;3.00;;;0.30;99.90;;;;;;5055641;28;20255;-89
2023/04/06 02:59:31;;;;;;;4.27;3.27;;;0.30;99.90;;;;;;5055456;28;20173;-88
2023/04/06 03:01:56;;;;;;;6.53;3.50;;;0.30;99.90;;;;;;5055347;28;20174;-88
2023/04/06 03:04:25;;;;;;;5.67;3.70;;;0.20;99.90;;;;;;5055272;28;20183;-87
2023/04/06 03:06:51;;;;;;;5.40;3.43;;;0.20;99.90;;;;;;5054307;28;20180;-89
2023/04/06 03:09:17;;;;;;;4.63;3.63;;;0.20;99.90;;;;;;5055245;28;20192;-88
2023/04/06 03:11:42;;;;;;;6.00;3.77;;;0.20;99.90;;;;;;5055211;28;20179;-88
2023/04/06 03:14:09;;;;;;;8.37;3.50;;;0.20;99.90;;;;;;5055160;28;20612;-88
2023/04/06 03:16:35;;;;;;;7.07;3.63;;;0.30;99.90;;;;;;5055320;28;20168;-88
2023/04/06 03:19:00;;;;;;;5.17;3.50;;;0.30;99.90;;;;;;5055210;28;20170;-89
2023/04/06 03:21:26;;;;;;;6.10;3.40;;;0.40;99.90;;;;;;5045015;28;20179;-88
2023/04/06 03:23:57;;;;;;;7.93;3.80;;;0.30;99.90;;;;;;5035262;28;20258;-89
2023/04/06 03:26:22;;;;;;;5.07;3.33;;;0.20;99.90;;;;;;5035296;28;20503;-89
2023/04/06 03:28:48;;;;;;;4.60;3.33;;;0.10;99.90;;;;;;5034941;28;20210;-89
2023/04/06 03:31:14;;;;;;;6.87;3.50;;;0.10;99.90;;;;;;5034785;28;20170;-88
2023/04/06 03:33:45;;;;;;;6.07;3.57;;;0.10;99.90;;;;;;5034818;28;20217;-87
2023/04/06 03:36:11;;;;;;;6.57;4.10;;;0.00;99.90;;;;;;5034801;28;20172;-88
2023/04/06 03:38:37;;;;;;;5.13;3.37;;;0.00;99.90;;;;;;5017823;28;20239;-88
2023/04/06 03:41:02;;;;;;;7.03;3.60;;;0.00;99.90;;;;;;5034943;28;20183;-89
2023/04/06 03:43:31;;;;;;;4.70;3.10;;;-0.10;99.90;;;;;;5033554;28;20272;-88
2023/04/06 03:45:57;;;;;;;5.37;3.70;;;-0.10;99.90;;;;;;5017261;28;20179;-89
2023/04/06 03:48:22;;;;;;;5.73;3.70;;;-0.10;99.90;;;;;;5034680;28;20551;-89
2023/04/06 03:50:48;;;;;;;6.33;3.73;;;-0.10;99.90;;;;;;5034148;28;20234;-89
2023/04/06 03:53:16;;;;;;;6.97;3.77;;;-0.10;99.90;;;;;;5033107;28;20605;-87
2023/04/06 03:55:41;;;;;;;6.47;3.63;;;-0.10;99.90;;;;;;5034545;28;20167;-85
2023/04/06 03:58:07;;;;;;;5.83;3.40;;;-0.10;99.90;;;;;;5034739;28;20181;-89
2023/04/06 04:00:33;;;;;;;5.13;3.67;;;-0.10;99.90;;;;;;5034637;28;20182;-89
2023/04/06 04:02:59;;;;;;;7.73;3.90;;;-0.10;99.90;;;;;;5034704;28;20229;-89
2023/04/06 04:05:25;;;;;;;6.23;4.03;;;-0.10;99.90;;;;;;5034786;28;20167;-88
2023/04/06 04:07:51;;;;;;;7.43;3.80;;;-0.20;99.90;;;;;;5034302;28;20194;-89
2023/04/06 04:10:17;;;;;;;5.67;3.47;;;-0.20;99.90;;;;;;5034465;28;20175;-89
2023/04/06 04:12:43;;;;;;;4.90;3.70;;;-0.20;99.90;;;;;;5034365;28;20640;-89
2023/04/06 04:15:09;;;;;;;8.10;3.90;;;-0.20;99.90;;;;;;5034588;28;20182;-86
2023/04/06 04:17:34;;;;;;;6.80;4.43;;;-0.20;99.90;;;;;;5017142;28;20514;-89
2023/04/06 04:20:00;;;;;;;8.33;4.77;;;-0.20;99.90;;;;;;5016938;28;20175;-87
2023/04/06 04:22:27;;;;;;;5.33;3.93;;;-0.20;99.90;;;;;;5034134;28;20214;-89
2023/04/06 04:24:54;;;;;;;5.70;3.90;;;-0.30;99.90;;;;;;5035826;28;20190;-89
2023/04/06 04:27:20;;;;;;;6.90;4.17;;;-0.30;99.90;;;;;;5038365;28;20622;-89
2023/04/06 04:29:46;;;;;;;6.80;3.90;;;-0.40;99.90;;;;;;5038441;28;20512;-88
2023/04/06 04:32:12;;;;;;;7.67;4.20;;;-0.30;99.90;;;;;;5038214;28;20175;-89
2023/04/06 04:34:48;;;;;;;6.40;4.20;;;-0.30;99.90;;;;;;5020981;28;20175;-89
2023/04/06 04:37:14;;;;;;;4.70;3.60;;;-0.30;99.90;;;;;;5037897;28;20181;-88
2023/04/06 04:39:40;;;;;;;7.17;4.10;;;-0.30;99.90;;;;;;5038425;28;20171;-89
2023/04/06 04:42:05;;;;;;;8.87;3.87;;;-0.40;99.90;;;;;;5038210;28;20206;-90
2023/04/06 04:44:33;;;;;;;6.03;3.90;;;-0.40;99.90;;;;;;5032443;28;20179;-89
2023/04/06 04:46:59;;;;;;;10.93;4.37;;;-0.50;99.90;;;;;;5018510;28;20179;-88
2023/04/06 04:49:24;;;;;;;4.97;4.03;;;-0.50;99.90;;;;;;5000763;28;20184;-89
2023/04/06 04:51:52;;;;;;;8.77;4.37;;;-0.50;99.90;;;;;;5030703;28;20692;-89
2023/04/06 04:54:20;;;;;;;9.73;4.53;;;-0.50;99.90;;;;;;5033272;28;20171;-87
2023/04/06 04:56:45;;;;;;;8.37;4.13;;;-0.60;99.90;;;;;;5018065;28;20167;-89
2023/04/06 04:59:11;;;;;;;6.67;4.30;;;-0.50;99.90;;;;;;5017486;28;20171;-89
2023/04/06 05:01:37;;;;;;;7.30;3.90;;;-0.50;99.90;;;;;;5017754;28;20606;-89
2023/04/06 05:04:05;;;;;;;4.63;3.50;;;-0.50;99.90;;;;;;5018121;28;20201;-88
2023/04/06 05:06:30;;;;;;;5.30;3.73;;;-0.50;99.90;;;;;;5000375;28;20271;-88
2023/04/06 05:08:56;;;;;;;6.33;4.20;;;-0.50;99.90;;;;;;5017991;28;20306;-89
2023/04/06 05:11:22;;;;;;;6.73;4.13;;;-0.50;99.90;;;;;;5017912;28;20202;-88
2023/04/06 05:13:49;;;;;;;6.03;3.83;;;-0.40;99.90;;;;;;5018004;28;20199;-89
2023/04/06 05:16:14;;;;;;;5.73;3.73;;;-0.40;99.90;;;;;;5000691;28;20227;-89
2023/04/06 05:18:40;;;;;;;6.27;3.73;;;-0.40;99.90;;;;;;5018108;28;20207;-89
2023/04/06 05:21:06;;;;;;;5.77;3.43;;;-0.30;99.90;;;;;;5024089;28;20208;-89
2023/04/06 05:23:31;;;;;;;6.57;3.87;;;-0.20;99.90;;;;;;5037264;28;20186;-89
2023/04/06 05:25:57;;;;;;;7.07;3.90;;;-0.20;99.90;;;;;;5037518;28;20166;-89
2023/04/06 05:28:23;;;;;;;7.43;4.10;;;-0.10;99.90;;;;;;5037475;28;20256;-90
2023/04/06 05:30:49;;;;;;;6.47;3.77;;;0.00;99.90;;;;;;5037234;28;20201;-85
2023/04/06 05:33:15;;;;;;;9.23;4.20;;;0.10;99.90;;;;;;5037442;28;20228;-84
2023/04/06 05:35:43;;;;;;;5.37;3.73;;;0.20;99.90;;;;;;5037204;28;20483;-89
2023/04/06 05:38:10;;;;;;;4.60;3.33;;;0.40;99.90;;;;;;5036971;28;20171;-89
2023/04/06 05:40:37;;;;;;;8.90;4.13;;;0.50;99.90;;;;;;5037370;28;20186;-87
2023/04/06 05:43:03;;;;;;;5.97;3.93;;;0.60;99.90;;;;;;5037578;28;20177;-88
2023/04/06 05:45:30;;;;;;;5.43;3.87;;;0.70;99.90;;;;;;5037123;28;20732;-90
2023/04/06 05:47:55;;;;;;;7.70;4.43;;;0.90;99.90;;;;;;5019303;28;20549;-89
2023/04/06 05:50:22;;;;;;;8.37;4.23;;;0.90;99.90;;;;;;5036366;28;20283;-90
2023/04/06 05:52:47;;;;;;;7.07;4.10;;;1.10;99.90;;;;;;5036615;28;20636;-87
2023/04/06 05:55:15;;;;;;;8.07;5.00;;;1.20;99.90;;;;;;5036879;28;20271;-89
2023/04/06 05:57:41;;;;;;;7.57;4.97;;;1.30;99.90;;;;;;5036662;28;20167;-86
2023/04/06 06:00:09;;;;;;;6.03;4.20;;;1.40;99.90;;;;;;5036657;28;20178;-86
2023/04/06 06:02:35;;;;;;;8.37;4.97;;;1.50;99.90;;;;;;5018570;28;20208;-87
2023/04/06 06:05:01;;;;;;;6.97;4.50;;;1.60;99.90;;;;;;5036305;28;20587;-83
2023/04/06 06:07:27;;;;;;;6.70;4.47;;;1.70;99.90;;;;;;5035910;28;20205;-86
2023/04/06 06:09:52;;;;;;;6.67;4.60;;;1.80;99.90;;;;;;5036179;28;20212;-88
2023/04/06 06:12:18;;;;;;;8.63;4.83;;;2.00;99.90;;;;;;5036236;28;20256;-87
2023/04/06 06:14:55;;;;;;;10.07;5.23;;;2.10;99.90;;;;;;5036257;28;20181;-85
2023/04/06 06:17:20;;;;;;;7.50;4.93;;;2.30;99.90;;;;;;5036088;28;20573;-80
2023/04/06 06:19:47;;;;;;;8.70;5.13;;;2.40;99.90;;;;;;5018413;28;20178;-85
2023/04/06 06:22:13;;;;;;;9.07;5.70;;;2.50;99.90;;;;;;5035390;28;20186;-84
2023/04/06 06:24:44;;;;;;;5.67;4.60;;;2.70;99.90;;;;;;5001763;28;20189;-89
2023/04/06 06:27:10;;;;;;;6.97;5.40;;;2.90;99.90;;;;;;5036038;28;20202;-87
2023/04/06 06:29:36;;;;;;;9.67;4.97;;;3.00;99.90;;;;;;5035937;28;20679;-86
2023/04/06 06:32:01;;;;;;;10.60;5.23;;;3.20;99.90;;;;;;5035316;28;20175;-86
2023/04/06 06:34:27;;;;;;;9.37;5.53;;;3.30;99.90;;;;;;5035405;28;20181;-86
2023/04/06 06:36:55;;;;;;;7.73;5.30;;;3.40;99.90;;;;;;5033527;28;20182;-85
2023/04/06 06:39:20;;;;;;;20.57;5.63;;;3.60;99.90;;;;;;5035209;28;20179;-81
2023/04/06 06:41:46;;;;;;;10.27;5.10;;;3.70;99.90;;;;;;5035393;28;20262;-84
2023/04/06 06:44:12;;;;;;;12.43;4.97;;;3.90;99.90;;;;;;5034940;28;20205;-83
2023/04/06 06:46:37;;;;;;;6.00;4.30;;;4.00;99.90;;;;;;5034560;28;20203;-85
2023/04/06 06:49:03;;;;;;;6.50;4.73;;;4.10;99.90;;;;;;5017030;28;20664;-80
2023/04/06 06:51:29;;;;;;;8.83;4.87;;;4.30;99.90;;;;;;5032842;28;20238;-83
2023/04/06 06:53:54;;;;;;;7.20;4.63;;;4.40;99.90;;;;;;5033426;28;20178;-82
2023/04/06 06:56:20;;;;;;;5.63;4.60;;;4.60;99.90;;;;;;5034586;28;20174;-80
2023/04/06 06:58:46;;;;;;;5.23;4.50;;;4.70;99.90;;;;;;5034718;28;20253;-80
2023/04/06 07:01:11;;;;;;;8.10;4.80;;;4.80;99.90;;;;;;5034329;28;20515;-85
2023/04/06 07:03:37;;;;;;;6.07;4.80;;;5.00;99.90;;;;;;5016693;28;20531;-81
2023/04/06 07:06:03;;;;;;;6.60;4.43;;;5.00;99.90;;;;;;5034224;28;20178;-80
2023/04/06 07:08:28;;;;;;;7.07;4.57;;;5.20;99.90;;;;;;5034018;28;20578;-80
2023/04/06 07:10:56;;;;;;;6.33;4.17;;;5.30;99.90;;;;;;5034483;28;20225;-83
2023/04/06 07:13:22;;;;;;;6.63;4.30;;;5.40;99.90;;;;;;5016802;28;20185;-81
2023/04/06 07:15:51;;;;;;;5.97;4.47;;;5.50;99.90;;;;;;5034156;28;20210;-81
2023/04/06 07:18:18;;;;;;;6.93;4.37;;;5.70;99.90;;;;;;5016053;28;20174;-84
2023/04/06 07:20:44;;;;;;;5.20;4.13;;;5.80;99.90;;;;;;5016165;28;20206;-82
2023/04/06 07:23:10;;;;;;;8.90;3.80;;;5.80;99.90;;;;;;5034466;28;20178;-82
2023/04/06 07:25:35;;;;;;;13.00;3.90;;;5.90;99.90;;;;;;5035239;28;20623;-83
2023/04/06 07:28:02;;;;;;;10.73;4.10;;;6.10;99.90;;;;;;5034028;28;20208;-81
2023/04/06 07:30:28;;;;;;;8.60;4.07;;;6.20;99.90;;;;;;5033946;28;20166;-81
2023/04/06 07:32:58;;;;;;;13.23;4.43;;;6.20;98.90;;;;;;5034103;28;20221;-81
2023/04/06 07:35:26;;;;;;;10.47;4.37;;;6.30;99.40;;;;;;5033992;28;20193;-83
2023/04/06 07:37:52;;;;;;;11.33;4.60;;;6.40;99.60;;;;;;5033635;28;20242;-82
2023/04/06 07:40:19;;;;;;;8.03;4.00;;;6.40;99.00;;;;;;5033664;28;20508;-82
2023/04/06 07:42:45;;;;;;;5.70;4.57;;;6.50;98.60;;;;;;5033788;28;20506;-83
2023/04/06 07:45:11;;;;;;;6.80;4.10;;;6.60;98.20;;;;;;5033827;28;20171;-82
2023/04/06 07:47:36;;;;;;;6.70;4.37;;;6.60;98.30;;;;;;5033720;28;20210;-82
2023/04/06 07:50:02;;;;;;;9.23;4.40;;;6.70;97.60;;;;;;5033544;28;20653;-82
2023/04/06 07:52:28;;;;;;;8.87;4.80;;;6.90;98.60;;;;;;5033430;28;20337;-83
2023/04/06 07:54:54;;;;;;;7.03;4.10;;;7.00;97.50;;;;;;5033847;28;20520;-82
2023/04/06 07:57:19;;;;;;;6.17;4.10;;;7.10;97.20;;;;;;5033624;28;20170;-83
2023/04/06 07:59:45;;;;;;;6.03;4.43;;;7.20;96.70;;;;;;5035818;28;20178;-85
2023/04/06 08:02:11;;;;;;;6.20;4.13;;;7.30;96.80;;;;;;5037692;28;20992;-83
2023/04/06 08:04:37;;;;;;;5.90;4.20;;;7.40;96.50;;;;;;5037850;28;20189;-84
2023/04/06 08:07:02;;;;;;;6.73;4.37;;;7.40;96.70;;;;;;5019995;28;20313;-83
2023/04/06 08:09:28;;;;;;;9.83;4.60;;;7.50;96.40;;;;;;5037633;28;20182;-81
2023/04/06 08:11:54;;;;;;;6.77;4.37;;;7.60;96.90;;;;;;5037544;28;20218;-84
2023/04/06 08:14:19;;;;;;;8.27;4.73;;;7.70;96.30;;;;;;5037618;28;20601;-85
2023/04/06 08:16:46;;;;;;;7.00;4.63;;;7.80;95.90;;;;;;5037243;28;20641;-84
2023/04/06 08:19:12;;;;;;;9.00;4.77;;;7.80;95.80;;;;;;5019792;28;20177;-84
2023/04/06 08:21:37;;;;;;;6.60;4.67;;;7.90;96.10;;;;;;5035535;28;20190;-84
2023/04/06 08:24:03;;;;;;;7.93;4.77;;;8.00;96.20;;;;;;5037479;28;20277;-83
2023/04/06 08:26:31;;;;;;;7.40;4.77;;;8.00;95.80;;;;;;5037448;28;20175;-84
2023/04/06 08:28:56;;;;;;;5.93;4.57;;;8.10;94.50;;;;;;5018675;28;20217;-83
2023/04/06 08:31:22;;;;;;;6.00;4.60;;;8.20;94.00;;;;;;5019332;28;20182;-85
2023/04/06 08:33:48;;;;;;;7.27;4.80;;;8.20;93.70;;;;;;5037334;28;20182;-84
2023/04/06 08:36:14;;;;;;;9.37;5.00;;;8.20;92.50;;;;;;5037351;28;20186;-85
2023/04/06 08:38:42;;;;;;;7.60;5.10;;;8.20;93.60;;;;;;5037278;28;20178;-83
2023/04/06 08:41:13;;;;;;;7.53;4.53;;;8.20;93.40;;;;;;5019208;28;20240;-85
2023/04/06 08:43:56;;;;;;;6.37;4.70;;;8.40;92.90;;;;;;5035553;28;20193;-83
2023/04/06 08:46:29;;;;;;;6.00;4.00;;;8.40;92.90;;;;;;5037213;28;20194;-84
2023/04/06 08:48:56;;;;;;;5.70;4.03;;;8.50;92.10;;;;;;5036877;28;20221;-85
2023/04/06 08:51:26;;;;;;;7.60;4.23;;;8.60;92.20;;;;;;5036827;28;20226;-85
2023/04/06 08:53:57;;;;;;;7.17;4.60;;;8.60;91.10;;;;;;5037300;28;20240;-85
2023/04/06 08:56:25;;;;;;;7.47;5.30;;;8.70;91.80;;;;;;5036909;28;20327;-84
2023/04/06 08:58:51;;;;;;;8.53;4.57;;;8.80;91.10;;;;;;5018868;28;20515;-84
2023/04/06 09:01:21;;;;;;;7.37;4.97;;;8.90;92.00;;;;;;5035200;28;20649;-84
2023/04/06 09:03:49;;;;;;;7.80;4.63;;;9.00;92.10;;;;;;5036703;28;20181;-83
2023/04/06 09:06:15;;;;;;;9.40;5.10;;;9.10;91.20;;;;;;5036611;28;20269;-84
2023/04/06 09:08:41;;;;;;;6.43;4.18;;;9.20;91.00;;;;;;5036581;28;20592;-83
2023/04/06 09:11:08;;;;;;;6.67;4.63;;;9.30;90.70;;;;;;5036059;28;20174;-84
2023/04/06 09:13:48;;;;;;;6.63;3.90;;;9.30;90.60;;;;;;5036420;28;20194;-81
2023/04/06 09:16:15;;;;;;;8.27;4.53;;;9.40;89.40;;;;;;5036551;28;20645;-84
2023/04/06 09:18:41;;;;;;;7.60;4.30;;;9.40;90.10;;;;;;5036558;28;20594;-83
2023/04/06 09:21:08;;;;;;;6.85;4.45;;;9.50;90.90;;;;;;5036287;28;20179;-84
2023/04/06 09:23:33;;;;;;;6.05;4.40;;;9.70;90.50;;;;;;5035089;28;20194;-83
2023/04/06 09:26:07;;;;;;;5.97;4.53;;;9.80;89.40;;;;;;5036439;28;20271;-84
2023/04/06 09:29:06;;;;;;;11.43;4.25;;;9.80;88.30;;;;;;5035918;28;20213;-84
2023/04/06 09:31:34;;;;;;;8.70;4.72;;;9.90;90.20;;;;;;5002867;28;20700;-84
2023/04/06 09:34:01;;;;;;;8.20;4.22;;;10.00;90.60;;;;;;5018372;28;20559;-84
2023/04/06 09:36:34;;;;;;;6.93;4.30;;;10.20;88.80;;;;;;5018456;28;20179;-85
2023/04/06 09:39:04;;;;;;;7.32;4.70;;;10.20;88.00;;;;;;5018370;28;20633;-83
2023/04/06 09:41:32;;;;;;;5.88;4.10;;;10.30;90.40;;;;;;5035933;28;20594;-84
2023/04/06 09:44:11;;;;;;;5.93;4.03;;;10.40;88.00;;;;;;5035848;28;20174;-83
2023/04/06 09:46:42;;;;;;;6.40;4.15;;;10.40;87.20;;;;;;5036266;28;20492;-84
2023/04/06 09:49:09;;;;;;;6.57;4.60;;;10.50;84.60;;;;;;5035719;28;20202;-83
2023/04/06 09:51:55;;;;;;;7.00;4.97;;;10.40;84.30;;;;;;5035410;28;20241;-83
2023/04/06 09:54:22;;;;;;;6.63;4.45;;;10.50;84.00;;;;;;5035778;28;20659;-85
2023/04/06 09:56:57;;;;;;;7.68;4.70;;;10.50;84.30;;;;;;5034451;28;20190;-84
2023/04/06 09:59:28;;;;;;;5.97;4.53;;;10.60;86.10;;;;;;5035255;28;20552;-83
2023/04/06 10:01:58;;;;;;;6.13;4.60;;;10.70;86.90;;;;;;5035502;28;20186;-83
2023/04/06 10:04:58;;;;;;;9.48;4.78;;;10.80;85.70;;;;;;5017736;28;20523;-83
2023/04/06 10:07:26;;;;;;;7.15;4.20;;;11.00;83.80;;;;;;5017713;28;20320;-82
2023/04/06 10:09:54;;;;;;;8.18;4.88;;;10.90;83.70;;;;;;5017810;28;20273;-83
2023/04/06 10:12:20;;;;;;;6.22;4.22;;;11.00;80.80;;;;;;5017504;28;20201;-84
2023/04/06 10:14:46;;;;;;;8.20;5.00;;;11.00;84.90;;;;;;5016586;28;20190;-83
2023/04/06 10:17:12;;;;;;;7.93;4.55;;;11.10;83.30;;;;;;5035372;28;20524;-83
2023/04/06 10:19:52;;;;;;;6.28;4.20;;;11.20;81.80;;;;;;5034008;28;20240;-84
2023/04/06 10:22:26;;;;;;;7.55;5.00;;;11.20;81.30;;;;;;5034349;28;20484;-84
2023/04/06 10:24:52;;;;;;;6.22;4.75;;;11.30;81.70;;;;;;5035079;28;20157;-83
2023/04/06 10:27:28;;;;;;;5.57;4.05;;;11.30;83.40;;;;;;5034977;28;20256;-83
2023/04/06 10:29:54;;;;;;;8.27;4.72;;;11.50;79.40;;;;;;5034621;28;20198;-82
2023/04/06 10:32:20;;;;;;;9.65;4.90;;;11.60;81.20;;;;;;5034741;28;20229;-84
2023/04/06 10:34:45;;;;;;;8.32;4.90;;;11.70;82.00;;;;;;5034816;28;20183;-83
2023/04/06 10:37:15;;;;;;;9.32;5.25;;;11.70;78.70;;;;;;5034892;28;20506;-84
2023/04/06 10:39:59;;;;;;;7.18;4.03;;;11.70;80.30;;;;;;5034777;28;20597;-83
2023/04/06 10:42:36;;;;;;;8.43;5.10;;;11.80;79.90;;;;;;5034594;28;20165;-83
2023/04/06 10:45:01;;;;;;;7.05;4.90;;;11.90;80.00;;;;;;5034141;28;20166;-84
2023/04/06 10:47:39;;;;;;;6.47;4.05;;;12.00;80.20;;;;;;5035235;28;20170;-87
2023/04/06 10:50:06;;;;;;;6.30;4.43;;;11.70;84.30;;;;;;5034439;28;20225;-84
2023/04/06 10:52:31;;;;;;;6.95;4.10;;;11.80;81.20;;;;;;5034365;28;20175;-83
2023/04/06 10:54:57;;;;;;;7.00;3.97;;;11.90;80.90;;;;;;5034480;28;20171;-83
2023/04/06 10:57:31;;;;;;;6.10;4.45;;;12.00;75.60;;;;;;5034582;28;20228;-83
2023/04/06 10:59:57;;;;;;;13.25;4.40;;;12.30;83.10;;;;;;5034309;28;20189;-83
2023/04/06 11:02:23;;;;;;;7.55;4.68;;;12.40;80.80;;;;;;5032941;28;20245;-83
2023/04/06 11:04:58;;;;;;;7.55;4.10;;;12.40;77.20;;;;;;5034316;28;20175;-83
2023/04/06 11:07:29;;;;;;;9.25;5.15;;;12.50;79.10;;;;;;5034644;28;20182;-87
2023/04/06 11:09:56;;;;;;;7.35;4.55;;;12.20;81.50;;;;;;5035094;28;20226;-86
2023/04/06 11:12:25;;;;;;;7.72;4.95;;;12.00;83.60;;;;;;5034590;28;20198;-86
2023/04/06 11:15:03;;;;;;;12.40;4.30;;;11.90;81.60;;;;;;5016434;28;20182;-84
2023/04/06 11:17:35;;;;;;;7.88;4.47;;;11.90;79.20;;;;;;5034391;28;20504;-84
2023/04/06 11:20:03;;;;;;;6.75;4.63;;;11.90;83.30;;;;;;5032991;28;20173;-85
2023/04/06 11:22:30;;;;;;;11.05;4.88;;;12.10;81.50;;;;;;5034075;28;20167;-82
2023/04/06 11:25:08;;;;;;;7.15;4.25;;;12.30;79.20;;;;;;5034192;28;20171;-83
2023/04/06 11:27:35;;;;;;;8.73;4.90;;;12.40;80.50;;;;;;5033874;28;20218;-83
2023/04/06 11:30:02;;;;;;;8.13;5.72;;;12.70;81.50;;;;;;5033257;28;20517;-85
2023/04/06 11:32:28;;;;;;;7.38;5.18;;;12.70;80.10;;;;;;5034067;28;20558;-89
2023/04/06 11:34:53;;;;;;;9.43;4.53;;;12.90;79.50;;;;;;5034165;28;20179;-83
2023/04/06 11:37:19;;;;;;;7.70;4.90;;;12.80;81.20;;;;;;5033905;28;20182;-84
2023/04/06 11:39:56;;;;;;;5.78;4.70;;;13.00;76.90;;;;;;5033699;28;20577;-83
2023/04/06 11:42:27;;;;;;;6.32;4.45;;;13.20;77.90;;;;;;5033888;28;20504;-82
2023/04/06 11:45:00;;;;;;;7.72;4.53;;;13.30;73.40;;;;;;5033466;28;20612;-81
2023/04/06 11:47:33;;;;;;;7.15;4.47;;;13.20;72.40;;;;;;5033660;28;20225;-82
2023/04/06 11:50:11;;;;;;;6.90;4.47;;;13.30;73.90;;;;;;5033462;28;20272;-84
2023/04/06 11:52:38;;;;;;;6.50;4.20;;;13.20;72.50;;;;;;5033903;28;20546;-82
2023/04/06 11:55:15;;;;;;;8.88;4.45;;;13.00;73.00;;;;;;5033316;28;20205;-84
2023/04/06 11:57:41;;;;;;;6.32;4.38;;;13.00;73.90;;;;;;5033645;28;20162;-83
2023/04/06 12:00:09;;;;;;;6.15;4.43;;;13.00;73.70;;;;;;5033480;28;20262;-84
2023/04/06 12:02:36;;;;;;;7.03;4.88;;;13.20;77.30;;;;;;5033437;28;20166;-83
2023/04/06 12:05:02;;;;;;;5.95;4.65;;;13.20;72.90;;;;;;5033817;28;20194;-83
2023/04/06 12:07:30;;;;;;;9.30;4.63;;;13.30;76.40;;;;;;5033480;28;20179;-83
2023/04/06 12:09:56;;;;;;;8.23;5.18;;;13.40;70.90;;;;;;5033479;28;20185;-83
2023/04/06 12:12:22;;;;;;;6.60;4.47;;;13.50;73.60;;;;;;5033378;28;20249;-83
2023/04/06 12:14:47;;;;;;;5.40;4.32;;;13.50;72.40;;;;;;5033094;28;20716;-84
2023/04/06 12:17:13;;;;;;;8.60;4.60;;;13.50;74.20;;;;;;5033499;28;20234;-82
2023/04/06 12:19:39;;;;;;;6.65;4.68;;;13.50;71.90;;;;;;5033359;28;20185;-84
2023/04/06 12:22:05;;;;;;;7.78;4.93;;;13.70;75.90;;;;;;5033060;28;20163;-84
2023/04/06 12:24:30;;;;;;;5.55;4.70;;;13.80;72.20;;;;;;5032101;28;20178;-82
2023/04/06 12:26:56;;;;;;;5.85;4.60;;;13.70;73.80;;;;;;5033406;28;20256;-89
2023/04/06 12:29:24;;;;;;;7.72;4.35;;;13.80;75.90;;;;;;5014422;28;20209;-85
2023/04/06 12:31:50;;;;;;;5.38;4.65;;;13.90;75.00;;;;;;5033305;28;20161;-81
2023/04/06 12:34:16;;;;;;;7.50;4.78;;;14.00;75.70;;;;;;5033138;28;20254;-83
2023/04/06 12:36:42;;;;;;;6.65;4.50;;;14.10;77.60;;;;;;5032145;28;20261;-79
2023/04/06 12:39:08;;;;;;;8.30;5.22;;;14.10;74.40;;;;;;5033358;28;20202;-81
2023/04/06 12:41:34;;;;;;;8.52;5.18;;;14.20;71.70;;;;;;5032870;28;20228;-79
2023/04/06 12:44:00;;;;;;;7.03;5.15;;;14.10;78.40;;;;;;5031736;28;20183;-79
2023/04/06 12:46:26;;;;;;;7.00;5.13;;;13.80;76.30;;;;;;5034818;28;20273;-79
2023/04/06 12:48:56;;;;;;;7.43;5.03;;;13.90;74.40;;;;;;5036973;28;20297;-79
2023/04/06 12:51:22;;;;;;;7.95;5.47;;;14.10;73.40;;;;;;5036462;28;20602;-79
2023/04/06 12:53:48;;;;;;;8.15;5.05;;;14.10;71.80;;;;;;5018920;28;20174;-85